sensor_id;sensor_type;location;lat;lon;timestamp;temperature;humidity
7077;DHT22;3579;48.956;9.154;2023-02-15T00:01:21;16.20;47.10
7077;DHT22;3579;48.956;9.154;2023-02-15T00:03:50;16.20;47.10
7077;DHT22;3579;48.956;9.154;2023-02-15T00:06:17;16.20;47.10
7077;DHT22;3579;48.956;9.154;2023-02-15T00:08:43;16.20;47.10
7077;DHT22;3579;48.956;9.154;2023-02-15T00:11:14;16.20;47.20
7077;DHT22;3579;48.956;9.154;2023-02-15T00:13:40;16.20;47.10
7077;DHT22;3579;48.956;9.154;2023-02-15T00:16:09;16.20;47.20
7077;DHT22;3579;48.956;9.154;2023-02-15T00:18:36;16.10;47.10
7077;DHT22;3579;48.956;9.154;2023-02-15T00:21:07;16.10;47.30
7077;DHT22;3579;48.956;9.154;2023-02-15T00:23:33;16.10;47.20
7077;DHT22;3579;48.956;9.154;2023-02-15T00:26:10;16.10;47.20
7077;DHT22;3579;48.956;9.154;2023-02-15T00:28:37;16.10;47.20
7077;DHT22;3579;48.956;9.154;2023-02-15T00:31:10;16.10;47.20
7077;DHT22;3579;48.956;9.154;2023-02-15T00:33:38;16.10;47.20
7077;DHT22;3579;48.956;9.154;2023-02-15T00:36:06;16.10;47.20
7077;DHT22;3579;48.956;9.154;2023-02-15T00:38:33;16.10;47.20
7077;DHT22;3579;48.956;9.154;2023-02-15T00:41:02;16.00;47.10
7077;DHT22;3579;48.956;9.154;2023-02-15T00:43:29;16.00;47.10
7077;DHT22;3579;48.956;9.154;2023-02-15T00:45:56;16.00;47.10
7077;DHT22;3579;48.956;9.154;2023-02-15T00:48:23;16.00;47.20
7077;DHT22;3579;48.956;9.154;2023-02-15T00:50:50;16.00;47.20
7077;DHT22;3579;48.956;9.154;2023-02-15T00:53:17;16.00;47.20
7077;DHT22;3579;48.956;9.154;2023-02-15T00:55:43;16.00;47.20
7077;DHT22;3579;48.956;9.154;2023-02-15T00:58:09;15.90;47.20
7077;DHT22;3579;48.956;9.154;2023-02-15T01:00:37;15.90;47.20
7077;DHT22;3579;48.956;9.154;2023-02-15T01:03:04;15.90;47.30
7077;DHT22;3579;48.956;9.154;2023-02-15T01:05:31;15.90;47.30
7077;DHT22;3579;48.956;9.154;2023-02-15T01:07:59;15.90;47.40
7077;DHT22;3579;48.956;9.154;2023-02-15T01:10:26;15.90;47.40
7077;DHT22;3579;48.956;9.154;2023-02-15T01:12:53;15.80;47.30
7077;DHT22;3579;48.956;9.154;2023-02-15T01:15:19;15.80;47.40
7077;DHT22;3579;48.956;9.154;2023-02-15T01:17:45;15.80;47.40
7077;DHT22;3579;48.956;9.154;2023-02-15T01:20:18;15.80;47.40
7077;DHT22;3579;48.956;9.154;2023-02-15T01:22:44;15.80;47.40
7077;DHT22;3579;48.956;9.154;2023-02-15T01:25:10;15.80;47.40
7077;DHT22;3579;48.956;9.154;2023-02-15T01:27:36;15.70;47.40
7077;DHT22;3579;48.956;9.154;2023-02-15T01:30:02;15.70;47.40
7077;DHT22;3579;48.956;9.154;2023-02-15T01:32:30;15.70;47.50
7077;DHT22;3579;48.956;9.154;2023-02-15T01:34:57;15.70;47.50
7077;DHT22;3579;48.956;9.154;2023-02-15T01:37:23;15.70;47.50
7077;DHT22;3579;48.956;9.154;2023-02-15T01:39:49;15.70;47.50
7077;DHT22;3579;48.956;9.154;2023-02-15T01:42:21;15.60;47.50
7077;DHT22;3579;48.956;9.154;2023-02-15T01:45:00;15.60;47.50
7077;DHT22;3579;48.956;9.154;2023-02-15T01:47:35;15.60;47.50
7077;DHT22;3579;48.956;9.154;2023-02-15T01:50:29;15.60;47.50
7077;DHT22;3579;48.956;9.154;2023-02-15T01:56:06;15.60;47.60
7077;DHT22;3579;48.956;9.154;2023-02-15T01:58:35;15.60;47.70
7077;DHT22;3579;48.956;9.154;2023-02-15T02:01:04;15.50;47.60
7077;DHT22;3579;48.956;9.154;2023-02-15T02:03:53;15.50;47.60
7077;DHT22;3579;48.956;9.154;2023-02-15T02:06:22;15.50;47.60
7077;DHT22;3579;48.956;9.154;2023-02-15T02:08:49;15.50;47.70
7077;DHT22;3579;48.956;9.154;2023-02-15T02:11:16;15.50;47.70
7077;DHT22;3579;48.956;9.154;2023-02-15T02:13:43;15.50;47.60
7077;DHT22;3579;48.956;9.154;2023-02-15T02:19:26;15.50;47.60
7077;DHT22;3579;48.956;9.154;2023-02-15T02:38:33;15.40;47.70
7077;DHT22;3579;48.956;9.154;2023-02-15T02:41:32;15.40;47.70
7077;DHT22;3579;48.956;9.154;2023-02-15T02:44:14;15.40;47.70
7077;DHT22;3579;48.956;9.154;2023-02-15T02:47:05;15.40;47.80
7077;DHT22;3579;48.956;9.154;2023-02-15T02:49:38;15.40;47.80
7077;DHT22;3579;48.956;9.154;2023-02-15T02:52:07;15.30;47.70
7077;DHT22;3579;48.956;9.154;2023-02-15T02:54:34;15.30;47.70
7077;DHT22;3579;48.956;9.154;2023-02-15T02:57:04;15.30;47.80
7077;DHT22;3579;48.956;9.154;2023-02-15T02:59:37;15.30;47.80
7077;DHT22;3579;48.956;9.154;2023-02-15T03:02:25;15.30;47.80
7077;DHT22;3579;48.956;9.154;2023-02-15T03:04:57;15.30;47.80
7077;DHT22;3579;48.956;9.154;2023-02-15T03:07:31;15.30;47.80
7077;DHT22;3579;48.956;9.154;2023-02-15T03:09:59;15.30;47.80
7077;DHT22;3579;48.956;9.154;2023-02-15T03:15:03;15.20;47.80
7077;DHT22;3579;48.956;9.154;2023-02-15T03:17:32;15.30;47.90
7077;DHT22;3579;48.956;9.154;2023-02-15T03:20:03;15.20;47.80
7077;DHT22;3579;48.956;9.154;2023-02-15T03:22:40;15.20;47.90
7077;DHT22;3579;48.956;9.154;2023-02-15T03:25:17;15.20;47.90
7077;DHT22;3579;48.956;9.154;2023-02-15T03:27:48;15.20;47.90
7077;DHT22;3579;48.956;9.154;2023-02-15T03:30:18;15.10;47.90
7077;DHT22;3579;48.956;9.154;2023-02-15T03:32:46;15.10;47.90
7077;DHT22;3579;48.956;9.154;2023-02-15T03:35:13;15.10;47.90
7077;DHT22;3579;48.956;9.154;2023-02-15T03:37:55;15.20;48.00
7077;DHT22;3579;48.956;9.154;2023-02-15T03:43:34;15.10;47.90
7077;DHT22;3579;48.956;9.154;2023-02-15T03:48:42;15.10;48.10
7077;DHT22;3579;48.956;9.154;2023-02-15T03:51:12;15.10;48.10
7077;DHT22;3579;48.956;9.154;2023-02-15T03:56:27;15.10;48.10
7077;DHT22;3579;48.956;9.154;2023-02-15T03:58:53;15.10;48.10
7077;DHT22;3579;48.956;9.154;2023-02-15T04:04:38;15.00;48.10
7077;DHT22;3579;48.956;9.154;2023-02-15T04:07:07;15.00;48.10
7077;DHT22;3579;48.956;9.154;2023-02-15T04:09:34;15.00;48.10
7077;DHT22;3579;48.956;9.154;2023-02-15T04:12:19;15.00;48.10
7077;DHT22;3579;48.956;9.154;2023-02-15T04:14:45;15.00;48.10
7077;DHT22;3579;48.956;9.154;2023-02-15T04:17:29;15.00;48.10
7077;DHT22;3579;48.956;9.154;2023-02-15T04:19:55;15.00;48.10
7077;DHT22;3579;48.956;9.154;2023-02-15T04:22:40;15.00;48.10
7077;DHT22;3579;48.956;9.154;2023-02-15T04:25:24;15.00;48.10
7077;DHT22;3579;48.956;9.154;2023-02-15T04:27:52;15.00;48.10
7077;DHT22;3579;48.956;9.154;2023-02-15T04:30:21;15.00;48.10
7077;DHT22;3579;48.956;9.154;2023-02-15T04:32:47;14.90;48.10
7077;DHT22;3579;48.956;9.154;2023-02-15T04:35:14;14.90;48.10
7077;DHT22;3579;48.956;9.154;2023-02-15T04:37:41;14.90;48.10
7077;DHT22;3579;48.956;9.154;2023-02-15T04:40:10;15.00;48.10
7077;DHT22;3579;48.956;9.154;2023-02-15T04:42:37;15.00;48.60
7077;DHT22;3579;48.956;9.154;2023-02-15T04:45:04;14.90;48.10
7077;DHT22;3579;48.956;9.154;2023-02-15T04:47:30;14.90;48.10
7077;DHT22;3579;48.956;9.154;2023-02-15T04:49:56;14.90;48.10
7077;DHT22;3579;48.956;9.154;2023-02-15T04:52:22;14.90;48.10
7077;DHT22;3579;48.956;9.154;2023-02-15T04:54:48;14.90;48.10
7077;DHT22;3579;48.956;9.154;2023-02-15T04:57:14;14.90;48.10
7077;DHT22;3579;48.956;9.154;2023-02-15T04:59:40;14.90;48.10
7077;DHT22;3579;48.956;9.154;2023-02-15T05:02:06;14.90;48.10
7077;DHT22;3579;48.956;9.154;2023-02-15T05:04:33;14.90;48.20
7077;DHT22;3579;48.956;9.154;2023-02-15T05:06:59;14.80;48.10
7077;DHT22;3579;48.956;9.154;2023-02-15T05:09:25;14.80;48.20
7077;DHT22;3579;48.956;9.154;2023-02-15T05:11:51;14.80;48.20
7077;DHT22;3579;48.956;9.154;2023-02-15T05:14:17;14.80;48.20
7077;DHT22;3579;48.956;9.154;2023-02-15T05:16:43;14.80;48.30
7077;DHT22;3579;48.956;9.154;2023-02-15T05:19:09;14.80;48.30
7077;DHT22;3579;48.956;9.154;2023-02-15T05:21:35;14.80;48.30
7077;DHT22;3579;48.956;9.154;2023-02-15T05:24:01;14.80;48.40
7077;DHT22;3579;48.956;9.154;2023-02-15T05:26:47;14.70;48.20
7077;DHT22;3579;48.956;9.154;2023-02-15T05:29:31;14.80;48.40
7077;DHT22;3579;48.956;9.154;2023-02-15T05:31:57;14.70;48.30
7077;DHT22;3579;48.956;9.154;2023-02-15T05:34:23;14.80;48.40
7077;DHT22;3579;48.956;9.154;2023-02-15T05:36:49;14.70;48.30
7077;DHT22;3579;48.956;9.154;2023-02-15T05:39:15;14.70;48.30
7077;DHT22;3579;48.956;9.154;2023-02-15T05:41:41;14.70;48.40
7077;DHT22;3579;48.956;9.154;2023-02-15T05:44:07;14.70;48.30
7077;DHT22;3579;48.956;9.154;2023-02-15T05:46:33;14.70;48.30
7077;DHT22;3579;48.956;9.154;2023-02-15T05:48:59;14.70;48.40
7077;DHT22;3579;48.956;9.154;2023-02-15T05:51:25;14.70;48.30
7077;DHT22;3579;48.956;9.154;2023-02-15T05:53:51;14.70;48.30
7077;DHT22;3579;48.956;9.154;2023-02-15T05:56:17;14.70;48.40
7077;DHT22;3579;48.956;9.154;2023-02-15T05:58:43;14.70;48.30
7077;DHT22;3579;48.956;9.154;2023-02-15T06:01:14;14.70;48.30
7077;DHT22;3579;48.956;9.154;2023-02-15T06:03:41;14.70;48.30
7077;DHT22;3579;48.956;9.154;2023-02-15T06:06:08;14.70;48.30
7077;DHT22;3579;48.956;9.154;2023-02-15T06:08:38;14.70;48.20
7077;DHT22;3579;48.956;9.154;2023-02-15T06:11:05;14.70;48.20
7077;DHT22;3579;48.956;9.154;2023-02-15T06:13:32;14.70;48.30
7077;DHT22;3579;48.956;9.154;2023-02-15T06:15:58;14.70;48.40
7077;DHT22;3579;48.956;9.154;2023-02-15T06:18:24;14.60;48.30
7077;DHT22;3579;48.956;9.154;2023-02-15T06:20:50;14.60;48.30
7077;DHT22;3579;48.956;9.154;2023-02-15T06:25:45;14.60;48.40
7077;DHT22;3579;48.956;9.154;2023-02-15T06:28:12;14.60;48.50
7077;DHT22;3579;48.956;9.154;2023-02-15T06:30:39;14.60;48.50
7077;DHT22;3579;48.956;9.154;2023-02-15T06:33:06;14.50;48.50
7077;DHT22;3579;48.956;9.154;2023-02-15T06:35:31;14.50;48.50
7077;DHT22;3579;48.956;9.154;2023-02-15T06:37:57;14.60;48.50
7077;DHT22;3579;48.956;9.154;2023-02-15T06:40:24;14.60;48.50
7077;DHT22;3579;48.956;9.154;2023-02-15T06:42:50;14.50;48.40
7077;DHT22;3579;48.956;9.154;2023-02-15T06:45:16;14.50;48.50
7077;DHT22;3579;48.956;9.154;2023-02-15T06:47:42;14.50;48.40
7077;DHT22;3579;48.956;9.154;2023-02-15T06:50:09;14.50;48.50
7077;DHT22;3579;48.956;9.154;2023-02-15T06:52:35;14.50;48.40
7077;DHT22;3579;48.956;9.154;2023-02-15T06:55:01;14.50;48.40
7077;DHT22;3579;48.956;9.154;2023-02-15T06:57:27;14.50;49.00
7077;DHT22;3579;48.956;9.154;2023-02-15T06:59:53;14.50;48.40
7077;DHT22;3579;48.956;9.154;2023-02-15T07:02:19;14.50;48.40
7077;DHT22;3579;48.956;9.154;2023-02-15T07:04:45;14.50;48.40
7077;DHT22;3579;48.956;9.154;2023-02-15T07:07:11;14.50;48.50
7077;DHT22;3579;48.956;9.154;2023-02-15T07:09:38;14.40;48.40
7077;DHT22;3579;48.956;9.154;2023-02-15T07:12:05;14.50;48.50
7077;DHT22;3579;48.956;9.154;2023-02-15T07:14:51;14.50;48.40
7077;DHT22;3579;48.956;9.154;2023-02-15T07:17:17;14.40;48.40
7077;DHT22;3579;48.956;9.154;2023-02-15T07:19:43;14.50;48.50
7077;DHT22;3579;48.956;9.154;2023-02-15T07:22:09;15.40;49.20
7077;DHT22;3579;48.956;9.154;2023-02-15T07:24:35;14.40;48.40
7077;DHT22;3579;48.956;9.154;2023-02-15T07:27:01;14.40;48.40
7077;DHT22;3579;48.956;9.154;2023-02-15T07:29:27;14.40;48.50
7077;DHT22;3579;48.956;9.154;2023-02-15T07:31:53;14.40;48.50
7077;DHT22;3579;48.956;9.154;2023-02-15T07:34:20;14.40;48.50
7077;DHT22;3579;48.956;9.154;2023-02-15T07:36:46;14.40;48.50
7077;DHT22;3579;48.956;9.154;2023-02-15T07:39:12;14.40;48.50
7077;DHT22;3579;48.956;9.154;2023-02-15T07:41:38;14.40;48.50
7077;DHT22;3579;48.956;9.154;2023-02-15T07:44:04;14.40;48.40
7077;DHT22;3579;48.956;9.154;2023-02-15T07:46:30;14.40;48.40
7077;DHT22;3579;48.956;9.154;2023-02-15T07:48:57;14.40;48.50
7077;DHT22;3579;48.956;9.154;2023-02-15T07:51:23;14.40;48.50
7077;DHT22;3579;48.956;9.154;2023-02-15T07:53:49;14.40;48.60
7077;DHT22;3579;48.956;9.154;2023-02-15T07:56:17;14.40;48.70
7077;DHT22;3579;48.956;9.154;2023-02-15T07:58:43;14.30;48.60
7077;DHT22;3579;48.956;9.154;2023-02-15T08:01:35;14.30;48.70
7077;DHT22;3579;48.956;9.154;2023-02-15T08:04:03;14.30;48.70
7077;DHT22;3579;48.956;9.154;2023-02-15T08:06:31;14.30;48.80
7077;DHT22;3579;48.956;9.154;2023-02-15T08:08:58;14.30;48.80
7077;DHT22;3579;48.956;9.154;2023-02-15T08:11:29;14.30;48.80
7077;DHT22;3579;48.956;9.154;2023-02-15T08:18:58;14.30;48.70
7077;DHT22;3579;48.956;9.154;2023-02-15T08:21:26;14.10;48.50
7077;DHT22;3579;48.956;9.154;2023-02-15T08:23:53;14.40;48.80
7077;DHT22;3579;48.956;9.154;2023-02-15T08:26:21;14.40;48.80
7077;DHT22;3579;48.956;9.154;2023-02-15T08:28:47;14.40;48.70
7077;DHT22;3579;48.956;9.154;2023-02-15T08:31:15;14.40;48.70
7077;DHT22;3579;48.956;9.154;2023-02-15T08:33:42;14.40;48.70
7077;DHT22;3579;48.956;9.154;2023-02-15T08:36:15;14.40;48.70
7077;DHT22;3579;48.956;9.154;2023-02-15T08:38:42;14.40;48.70
7077;DHT22;3579;48.956;9.154;2023-02-15T08:41:17;14.40;48.70
7077;DHT22;3579;48.956;9.154;2023-02-15T08:43:46;14.50;48.70
7077;DHT22;3579;48.956;9.154;2023-02-15T08:46:14;14.40;48.90
7077;DHT22;3579;48.956;9.154;2023-02-15T08:48:40;14.40;49.30
7077;DHT22;3579;48.956;9.154;2023-02-15T08:51:13;14.50;49.40
7077;DHT22;3579;48.956;9.154;2023-02-15T08:53:42;14.50;49.50
7077;DHT22;3579;48.956;9.154;2023-02-15T08:56:08;14.50;49.40
7077;DHT22;3579;48.956;9.154;2023-02-15T08:58:35;14.50;49.40
7077;DHT22;3579;48.956;9.154;2023-02-15T09:01:07;14.50;49.40
7077;DHT22;3579;48.956;9.154;2023-02-15T09:03:33;14.50;49.30
7077;DHT22;3579;48.956;9.154;2023-02-15T09:06:00;14.50;49.30
7077;DHT22;3579;48.956;9.154;2023-02-15T09:08:28;14.50;49.30
7077;DHT22;3579;48.956;9.154;2023-02-15T09:11:05;14.50;49.30
7077;DHT22;3579;48.956;9.154;2023-02-15T09:13:31;14.60;49.30
7077;DHT22;3579;48.956;9.154;2023-02-15T09:16:03;14.60;49.30
7077;DHT22;3579;48.956;9.154;2023-02-15T09:18:36;14.60;49.20
7077;DHT22;3579;48.956;9.154;2023-02-15T09:21:11;14.60;49.20
7077;DHT22;3579;48.956;9.154;2023-02-15T09:23:44;14.60;49.20
7077;DHT22;3579;48.956;9.154;2023-02-15T09:26:17;14.60;49.20
7077;DHT22;3579;48.956;9.154;2023-02-15T09:28:43;14.60;49.20
7077;DHT22;3579;48.956;9.154;2023-02-15T09:31:15;14.60;49.10
7077;DHT22;3579;48.956;9.154;2023-02-15T09:33:43;14.70;49.20
7077;DHT22;3579;48.956;9.154;2023-02-15T09:36:17;14.70;49.10
7077;DHT22;3579;48.956;9.154;2023-02-15T09:38:45;14.70;49.10
7077;DHT22;3579;48.956;9.154;2023-02-15T09:44:13;14.70;49.10
7077;DHT22;3579;48.956;9.154;2023-02-15T09:46:51;14.70;49.00
7077;DHT22;3579;48.956;9.154;2023-02-15T10:05:50;14.80;49.00
7077;DHT22;3579;48.956;9.154;2023-02-15T10:11:08;14.90;49.10
7077;DHT22;3579;48.956;9.154;2023-02-15T10:14:29;14.90;49.00
7077;DHT22;3579;48.956;9.154;2023-02-15T10:28:27;15.00;49.00
7077;DHT22;3579;48.956;9.154;2023-02-15T10:31:07;15.00;49.00
7077;DHT22;3579;48.956;9.154;2023-02-15T10:33:42;15.00;49.00
7077;DHT22;3579;48.956;9.154;2023-02-15T10:41:39;15.10;49.00
7077;DHT22;3579;48.956;9.154;2023-02-15T10:44:35;15.10;49.00
7077;DHT22;3579;48.956;9.154;2023-02-15T11:00:56;15.20;48.90
7077;DHT22;3579;48.956;9.154;2023-02-15T11:06:07;15.30;49.00
7077;DHT22;3579;48.956;9.154;2023-02-15T11:08:40;15.30;49.00
7077;DHT22;3579;48.956;9.154;2023-02-15T11:11:31;15.40;49.00
7077;DHT22;3579;48.956;9.154;2023-02-15T11:14:02;15.40;49.00
7077;DHT22;3579;48.956;9.154;2023-02-15T11:16:37;15.40;48.90
7077;DHT22;3579;48.956;9.154;2023-02-15T11:19:18;15.40;48.90
7077;DHT22;3579;48.956;9.154;2023-02-15T11:21:49;15.50;49.00
7077;DHT22;3579;48.956;9.154;2023-02-15T11:24:18;15.50;49.00
7077;DHT22;3579;48.956;9.154;2023-02-15T11:29:52;15.60;49.00
7077;DHT22;3579;48.956;9.154;2023-02-15T11:35:36;15.70;49.00
7077;DHT22;3579;48.956;9.154;2023-02-15T11:40:55;15.70;48.90
7077;DHT22;3579;48.956;9.154;2023-02-15T11:46:01;15.80;48.90
7077;DHT22;3579;48.956;9.154;2023-02-15T11:48:30;15.80;48.90
7077;DHT22;3579;48.956;9.154;2023-02-15T11:50:57;15.80;48.80
7077;DHT22;3579;48.956;9.154;2023-02-15T11:53:23;15.80;48.80
7077;DHT22;3579;48.956;9.154;2023-02-15T11:55:54;15.80;48.80
7077;DHT22;3579;48.956;9.154;2023-02-15T12:03:46;15.90;48.90
7077;DHT22;3579;48.956;9.154;2023-02-15T12:06:26;15.90;48.80
7077;DHT22;3579;48.956;9.154;2023-02-15T12:09:07;15.90;49.30
7077;DHT22;3579;48.956;9.154;2023-02-15T12:11:40;15.90;48.70
7077;DHT22;3579;48.956;9.154;2023-02-15T12:14:08;16.00;48.80
7077;DHT22;3579;48.956;9.154;2023-02-15T12:16:50;16.00;48.80
7077;DHT22;3579;48.956;9.154;2023-02-15T12:21:56;16.00;48.80
7077;DHT22;3579;48.956;9.154;2023-02-15T12:24:31;16.00;48.70
7077;DHT22;3579;48.956;9.154;2023-02-15T12:27:05;16.00;48.80
7077;DHT22;3579;48.956;9.154;2023-02-15T12:29:52;16.00;48.70
7077;DHT22;3579;48.956;9.154;2023-02-15T12:32:25;16.00;48.70
7077;DHT22;3579;48.956;9.154;2023-02-15T12:34:56;16.10;48.80
7077;DHT22;3579;48.956;9.154;2023-02-15T12:37:28;16.10;48.80
7077;DHT22;3579;48.956;9.154;2023-02-15T12:40:21;16.10;48.80
7077;DHT22;3579;48.956;9.154;2023-02-15T12:42:47;16.10;48.80
7077;DHT22;3579;48.956;9.154;2023-02-15T12:45:34;16.10;48.80
7077;DHT22;3579;48.956;9.154;2023-02-15T12:50:46;16.20;48.80
7077;DHT22;3579;48.956;9.154;2023-02-15T12:53:19;16.20;48.80
7077;DHT22;3579;48.956;9.154;2023-02-15T12:56:06;16.20;48.80
7077;DHT22;3579;48.956;9.154;2023-02-15T12:58:37;16.20;48.80
7077;DHT22;3579;48.956;9.154;2023-02-15T13:01:25;16.20;48.80
7077;DHT22;3579;48.956;9.154;2023-02-15T13:06:27;16.20;48.70
7077;DHT22;3579;48.956;9.154;2023-02-15T13:08:56;16.20;48.70
7077;DHT22;3579;48.956;9.154;2023-02-15T13:11:29;16.20;48.80
7077;DHT22;3579;48.956;9.154;2023-02-15T13:14:20;16.20;48.70
7077;DHT22;3579;48.956;9.154;2023-02-15T13:16:50;16.30;48.80
7077;DHT22;3579;48.956;9.154;2023-02-15T13:19:41;16.30;48.80
7077;DHT22;3579;48.956;9.154;2023-02-15T13:22:14;16.30;49.40
7077;DHT22;3579;48.956;9.154;2023-02-15T13:24:50;16.30;48.90
7077;DHT22;3579;48.956;9.154;2023-02-15T13:27:21;16.30;49.00
7077;DHT22;3579;48.956;9.154;2023-02-15T13:29:51;16.30;49.00
7077;DHT22;3579;48.956;9.154;2023-02-15T13:32:31;16.30;49.00
7077;DHT22;3579;48.956;9.154;2023-02-15T13:35:00;16.30;49.00
7077;DHT22;3579;48.956;9.154;2023-02-15T13:43:30;16.40;49.00
7077;DHT22;3579;48.956;9.154;2023-02-15T13:54:54;16.40;49.00
7077;DHT22;3579;48.956;9.154;2023-02-15T14:00:10;16.40;49.00
7077;DHT22;3579;48.956;9.154;2023-02-15T14:05:28;16.40;49.40
7077;DHT22;3579;48.956;9.154;2023-02-15T14:08:08;16.40;48.90
7077;DHT22;3579;48.956;9.154;2023-02-15T14:10:57;16.40;48.90
7077;DHT22;3579;48.956;9.154;2023-02-15T14:13:52;16.40;48.90
7077;DHT22;3579;48.956;9.154;2023-02-15T14:19:32;16.40;49.00
7077;DHT22;3579;48.956;9.154;2023-02-15T14:22:23;16.40;48.90
7077;DHT22;3579;48.956;9.154;2023-02-15T14:27:37;16.40;48.90
7077;DHT22;3579;48.956;9.154;2023-02-15T14:30:21;16.50;49.00
7077;DHT22;3579;48.956;9.154;2023-02-15T14:32:52;16.50;49.10
7077;DHT22;3579;48.956;9.154;2023-02-15T14:35:26;16.50;49.10
7077;DHT22;3579;48.956;9.154;2023-02-15T14:40:38;16.50;49.10
7077;DHT22;3579;48.956;9.154;2023-02-15T14:43:47;16.50;49.10
7077;DHT22;3579;48.956;9.154;2023-02-15T14:49:06;16.50;49.10
7077;DHT22;3579;48.956;9.154;2023-02-15T15:04:35;16.50;49.10
7077;DHT22;3579;48.956;9.154;2023-02-15T15:07:08;16.50;49.10
7077;DHT22;3579;48.956;9.154;2023-02-15T15:09:40;16.50;49.10
7077;DHT22;3579;48.956;9.154;2023-02-15T15:14:50;16.50;49.10
7077;DHT22;3579;48.956;9.154;2023-02-15T15:22:29;16.50;49.10
7077;DHT22;3579;48.956;9.154;2023-02-15T15:25:04;16.50;49.10
7077;DHT22;3579;48.956;9.154;2023-02-15T15:43:45;16.50;49.00
7077;DHT22;3579;48.956;9.154;2023-02-15T15:49:20;16.50;49.00
7077;DHT22;3579;48.956;9.154;2023-02-15T15:51:47;16.50;49.00
7077;DHT22;3579;48.956;9.154;2023-02-15T15:54:34;16.50;49.00
7077;DHT22;3579;48.956;9.154;2023-02-15T15:57:04;16.50;49.00
7077;DHT22;3579;48.956;9.154;2023-02-15T15:59:33;16.50;49.10
7077;DHT22;3579;48.956;9.154;2023-02-15T16:02:07;16.50;49.00
7077;DHT22;3579;48.956;9.154;2023-02-15T16:04:37;16.50;49.00
7077;DHT22;3579;48.956;9.154;2023-02-15T16:09:58;16.50;49.10
7077;DHT22;3579;48.956;9.154;2023-02-15T16:12:27;16.50;49.30
7077;DHT22;3579;48.956;9.154;2023-02-15T16:14:55;16.50;49.10
7077;DHT22;3579;48.956;9.154;2023-02-15T16:17:26;16.50;49.10
7077;DHT22;3579;48.956;9.154;2023-02-15T16:20:18;16.50;49.10
7077;DHT22;3579;48.956;9.154;2023-02-15T16:22:46;16.50;49.10
7077;DHT22;3579;48.956;9.154;2023-02-15T16:25:36;16.50;49.10
7077;DHT22;3579;48.956;9.154;2023-02-15T16:28:08;16.50;49.10
7077;DHT22;3579;48.956;9.154;2023-02-15T16:30:37;16.40;49.00
7077;DHT22;3579;48.956;9.154;2023-02-15T16:33:12;16.40;49.00
7077;DHT22;3579;48.956;9.154;2023-02-15T16:35:59;16.40;49.00
7077;DHT22;3579;48.956;9.154;2023-02-15T16:43:43;16.50;49.30
7077;DHT22;3579;48.956;9.154;2023-02-15T16:46:12;16.40;49.10
7077;DHT22;3579;48.956;9.154;2023-02-15T16:48:43;16.40;49.10
7077;DHT22;3579;48.956;9.154;2023-02-15T16:51:20;16.40;49.20
7077;DHT22;3579;48.956;9.154;2023-02-15T16:53:47;16.40;49.30
7077;DHT22;3579;48.956;9.154;2023-02-15T16:56:14;16.40;49.30
7077;DHT22;3579;48.956;9.154;2023-02-15T16:58:44;16.40;49.40
7077;DHT22;3579;48.956;9.154;2023-02-15T17:01:13;16.40;49.90
7077;DHT22;3579;48.956;9.154;2023-02-15T17:03:41;16.40;49.40
7077;DHT22;3579;48.956;9.154;2023-02-15T17:06:26;15.50;48.70
7077;DHT22;3579;48.956;9.154;2023-02-15T17:09:03;16.30;49.30
7077;DHT22;3579;48.956;9.154;2023-02-15T17:11:40;16.30;49.30
7077;DHT22;3579;48.956;9.154;2023-02-15T17:16:40;16.30;49.30
7077;DHT22;3579;48.956;9.154;2023-02-15T17:19:25;16.30;49.30
7077;DHT22;3579;48.956;9.154;2023-02-15T17:22:05;16.30;49.30
7077;DHT22;3579;48.956;9.154;2023-02-15T17:24:40;16.30;49.40
7077;DHT22;3579;48.956;9.154;2023-02-15T17:30:01;16.30;49.40
7077;DHT22;3579;48.956;9.154;2023-02-15T17:32:30;16.30;49.40
7077;DHT22;3579;48.956;9.154;2023-02-15T17:35:05;16.20;49.40
7077;DHT22;3579;48.956;9.154;2023-02-15T17:40:27;16.20;49.40
7077;DHT22;3579;48.956;9.154;2023-02-15T17:42:54;16.20;49.40
7077;DHT22;3579;48.956;9.154;2023-02-15T17:45:21;16.20;49.30
7077;DHT22;3579;48.956;9.154;2023-02-15T17:47:48;16.20;49.40
7077;DHT22;3579;48.956;9.154;2023-02-15T17:50:22;16.20;49.40
7077;DHT22;3579;48.956;9.154;2023-02-15T17:52:50;16.20;49.40
7077;DHT22;3579;48.956;9.154;2023-02-15T17:55:19;16.20;49.90
7077;DHT22;3579;48.956;9.154;2023-02-15T17:58:09;16.10;49.30
7077;DHT22;3579;48.956;9.154;2023-02-15T18:00:39;16.10;49.30
7077;DHT22;3579;48.956;9.154;2023-02-15T18:03:32;16.10;49.30
7077;DHT22;3579;48.956;9.154;2023-02-15T18:06:18;16.10;49.30
7077;DHT22;3579;48.956;9.154;2023-02-15T18:09:03;16.10;49.40
7077;DHT22;3579;48.956;9.154;2023-02-15T18:11:48;16.10;49.40
7077;DHT22;3579;48.956;9.154;2023-02-15T18:14:15;16.10;49.40
7077;DHT22;3579;48.956;9.154;2023-02-15T18:16:42;16.10;49.40
7077;DHT22;3579;48.956;9.154;2023-02-15T18:19:22;16.10;49.40
7077;DHT22;3579;48.956;9.154;2023-02-15T18:21:50;16.00;49.40
7077;DHT22;3579;48.956;9.154;2023-02-15T18:24:19;16.00;49.40
7077;DHT22;3579;48.956;9.154;2023-02-15T18:26:46;16.00;49.40
7077;DHT22;3579;48.956;9.154;2023-02-15T18:29:13;16.00;49.60
7077;DHT22;3579;48.956;9.154;2023-02-15T18:31:39;15.90;49.40
7077;DHT22;3579;48.956;9.154;2023-02-15T18:34:51;16.00;49.50
7077;DHT22;3579;48.956;9.154;2023-02-15T18:36:59;15.90;49.50
7077;DHT22;3579;48.956;9.154;2023-02-15T18:39:42;15.90;49.50
7077;DHT22;3579;48.956;9.154;2023-02-15T18:42:31;15.90;49.50
7077;DHT22;3579;48.956;9.154;2023-02-15T18:45:01;15.90;49.50
7077;DHT22;3579;48.956;9.154;2023-02-15T18:47:30;15.90;49.50
7077;DHT22;3579;48.956;9.154;2023-02-15T18:49:56;15.90;49.50
7077;DHT22;3579;48.956;9.154;2023-02-15T18:52:25;15.90;49.50
7077;DHT22;3579;48.956;9.154;2023-02-15T18:54:59;15.90;49.50
7077;DHT22;3579;48.956;9.154;2023-02-15T18:57:27;15.80;49.40
7077;DHT22;3579;48.956;9.154;2023-02-15T18:59:53;15.90;49.50
7077;DHT22;3579;48.956;9.154;2023-02-15T19:02:19;15.90;49.50
7077;DHT22;3579;48.956;9.154;2023-02-15T19:04:45;15.70;49.40
7077;DHT22;3579;48.956;9.154;2023-02-15T19:07:21;15.80;49.50
7077;DHT22;3579;48.956;9.154;2023-02-15T19:09:51;15.80;49.50
7077;DHT22;3579;48.956;9.154;2023-02-15T19:12:18;15.80;49.60
7077;DHT22;3579;48.956;9.154;2023-02-15T19:14:44;15.80;49.60
7077;DHT22;3579;48.956;9.154;2023-02-15T19:17:16;15.70;49.50
7077;DHT22;3579;48.956;9.154;2023-02-15T19:19:43;15.70;50.10
7077;DHT22;3579;48.956;9.154;2023-02-15T19:22:28;15.70;49.60
7077;DHT22;3579;48.956;9.154;2023-02-15T19:24:57;15.70;49.60
7077;DHT22;3579;48.956;9.154;2023-02-15T19:27:33;15.70;49.70
7077;DHT22;3579;48.956;9.154;2023-02-15T19:30:03;15.70;49.60
7077;DHT22;3579;48.956;9.154;2023-02-15T19:32:32;15.70;49.70
7077;DHT22;3579;48.956;9.154;2023-02-15T19:34:58;15.70;49.70
7077;DHT22;3579;48.956;9.154;2023-02-15T19:37:25;15.70;49.70
7077;DHT22;3579;48.956;9.154;2023-02-15T19:39:55;15.60;49.60
7077;DHT22;3579;48.956;9.154;2023-02-15T19:42:22;15.60;49.70
7077;DHT22;3579;48.956;9.154;2023-02-15T19:44:49;15.60;49.70
7077;DHT22;3579;48.956;9.154;2023-02-15T19:47:16;15.60;49.70
7077;DHT22;3579;48.956;9.154;2023-02-15T19:49:42;15.60;49.70
7077;DHT22;3579;48.956;9.154;2023-02-15T19:52:16;15.50;49.70
7077;DHT22;3579;48.956;9.154;2023-02-15T19:54:43;15.50;49.70
7077;DHT22;3579;48.956;9.154;2023-02-15T19:57:12;15.50;49.70
7077;DHT22;3579;48.956;9.154;2023-02-15T19:59:39;15.50;49.70
7077;DHT22;3579;48.956;9.154;2023-02-15T20:02:06;15.50;49.80